sensor_id;sensor_type;location;lat;lon;timestamp;P1;durP1;ratioP1;P2;durP2;ratioP2
57856;SDS011;43683;48.650;9.290;2023-06-24T00:01:05;8.10;;;4.88;;
57856;SDS011;43683;48.650;9.290;2023-06-24T00:03:31;9.73;;;5.43;;
57856;SDS011;43683;48.650;9.290;2023-06-24T00:05:56;8.27;;;4.63;;
57856;SDS011;43683;48.650;9.290;2023-06-24T00:08:22;9.65;;;5.07;;
57856;SDS011;43683;48.650;9.290;2023-06-24T00:10:48;7.07;;;4.38;;
57856;SDS011;43683;48.650;9.290;2023-06-24T00:13:17;7.78;;;4.78;;
57856;SDS011;43683;48.650;9.290;2023-06-24T00:15:42;8.15;;;4.28;;
57856;SDS011;43683;48.650;9.290;2023-06-24T00:18:08;8.70;;;4.85;;
57856;SDS011;43683;48.650;9.290;2023-06-24T00:20:37;8.52;;;4.45;;
57856;SDS011;43683;48.650;9.290;2023-06-24T00:23:03;8.00;;;4.88;;
57856;SDS011;43683;48.650;9.290;2023-06-24T00:25:29;9.38;;;4.35;;
57856;SDS011;43683;48.650;9.290;2023-06-24T00:27:55;9.23;;;4.13;;
57856;SDS011;43683;48.650;9.290;2023-06-24T00:30:21;9.60;;;4.68;;
57856;SDS011;43683;48.650;9.290;2023-06-24T00:32:47;10.35;;;4.85;;
57856;SDS011;43683;48.650;9.290;2023-06-24T00:35:13;9.50;;;4.45;;
57856;SDS011;43683;48.650;9.290;2023-06-24T00:37:39;8.00;;;4.78;;
57856;SDS011;43683;48.650;9.290;2023-06-24T00:40:05;8.60;;;4.60;;
57856;SDS011;43683;48.650;9.290;2023-06-24T00:42:31;10.15;;;5.25;;
57856;SDS011;43683;48.650;9.290;2023-06-24T00:44:57;8.52;;;4.72;;
57856;SDS011;43683;48.650;9.290;2023-06-24T00:47:23;8.90;;;4.93;;
57856;SDS011;43683;48.650;9.290;2023-06-24T00:49:49;9.40;;;5.20;;
57856;SDS011;43683;48.650;9.290;2023-06-24T00:52:14;9.88;;;4.80;;
57856;SDS011;43683;48.650;9.290;2023-06-24T00:54:41;10.43;;;5.75;;
57856;SDS011;43683;48.650;9.290;2023-06-24T00:57:07;8.73;;;4.80;;
57856;SDS011;43683;48.650;9.290;2023-06-24T00:59:32;8.00;;;5.15;;
57856;SDS011;43683;48.650;9.290;2023-06-24T01:04:26;8.35;;;4.35;;
57856;SDS011;43683;48.650;9.290;2023-06-24T01:06:52;9.50;;;4.65;;
57856;SDS011;43683;48.650;9.290;2023-06-24T01:09:19;8.50;;;4.43;;
57856;SDS011;43683;48.650;9.290;2023-06-24T01:11:45;11.32;;;4.88;;
57856;SDS011;43683;48.650;9.290;2023-06-24T01:14:11;8.02;;;4.68;;
57856;SDS011;43683;48.650;9.290;2023-06-24T01:19:29;8.05;;;4.60;;
57856;SDS011;43683;48.650;9.290;2023-06-24T01:33:37;8.73;;;4.75;;
57856;SDS011;43683;48.650;9.290;2023-06-24T01:36:08;10.68;;;4.90;;
57856;SDS011;43683;48.650;9.290;2023-06-24T01:38:40;8.70;;;5.10;;
57856;SDS011;43683;48.650;9.290;2023-06-24T01:41:11;9.43;;;5.07;;
57856;SDS011;43683;48.650;9.290;2023-06-24T01:43:40;8.77;;;5.38;;
57856;SDS011;43683;48.650;9.290;2023-06-24T01:46:08;9.18;;;5.10;;
57856;SDS011;43683;48.650;9.290;2023-06-24T01:48:35;10.20;;;5.43;;
57856;SDS011;43683;48.650;9.290;2023-06-24T01:51:07;10.93;;;5.68;;
57856;SDS011;43683;48.650;9.290;2023-06-24T01:53:37;9.13;;;5.32;;
57856;SDS011;43683;48.650;9.290;2023-06-24T01:56:07;11.13;;;5.43;;
57856;SDS011;43683;48.650;9.290;2023-06-24T01:58:35;8.82;;;5.40;;
57856;SDS011;43683;48.650;9.290;2023-06-24T02:01:02;9.65;;;5.32;;
57856;SDS011;43683;48.650;9.290;2023-06-24T02:03:29;8.93;;;5.30;;
57856;SDS011;43683;48.650;9.290;2023-06-24T02:05:57;10.57;;;5.50;;
57856;SDS011;43683;48.650;9.290;2023-06-24T02:08:24;10.85;;;5.68;;
57856;SDS011;43683;48.650;9.290;2023-06-24T02:10:50;9.18;;;5.82;;
57856;SDS011;43683;48.650;9.290;2023-06-24T02:13:17;12.07;;;6.13;;
57856;SDS011;43683;48.650;9.290;2023-06-24T02:15:44;12.23;;;6.28;;
57856;SDS011;43683;48.650;9.290;2023-06-24T02:18:12;11.93;;;6.97;;
57856;SDS011;43683;48.650;9.290;2023-06-24T02:20:40;10.90;;;6.68;;
57856;SDS011;43683;48.650;9.290;2023-06-24T02:23:08;10.80;;;6.95;;
57856;SDS011;43683;48.650;9.290;2023-06-24T02:25:35;10.50;;;6.30;;
57856;SDS011;43683;48.650;9.290;2023-06-24T02:28:05;12.90;;;6.68;;
57856;SDS011;43683;48.650;9.290;2023-06-24T02:30:31;11.07;;;6.27;;
57856;SDS011;43683;48.650;9.290;2023-06-24T02:32:59;11.20;;;5.97;;
57856;SDS011;43683;48.650;9.290;2023-06-24T02:35:24;9.50;;;5.30;;
57856;SDS011;43683;48.650;9.290;2023-06-24T02:37:50;10.98;;;5.82;;
57856;SDS011;43683;48.650;9.290;2023-06-24T02:40:15;11.50;;;6.43;;
57856;SDS011;43683;48.650;9.290;2023-06-24T02:42:41;11.43;;;6.43;;
57856;SDS011;43683;48.650;9.290;2023-06-24T02:45:07;12.13;;;7.40;;
57856;SDS011;43683;48.650;9.290;2023-06-24T02:47:33;12.70;;;6.30;;
57856;SDS011;43683;48.650;9.290;2023-06-24T02:50:00;11.35;;;6.13;;
57856;SDS011;43683;48.650;9.290;2023-06-24T02:54:54;12.77;;;6.22;;
57856;SDS011;43683;48.650;9.290;2023-06-24T02:57:24;11.30;;;6.47;;
57856;SDS011;43683;48.650;9.290;2023-06-24T02:59:50;10.02;;;6.25;;
57856;SDS011;43683;48.650;9.290;2023-06-24T03:02:16;11.73;;;6.40;;
57856;SDS011;43683;48.650;9.290;2023-06-24T03:04:42;11.90;;;6.45;;
57856;SDS011;43683;48.650;9.290;2023-06-24T03:07:09;10.82;;;6.25;;
57856;SDS011;43683;48.650;9.290;2023-06-24T03:09:36;14.60;;;7.22;;
57856;SDS011;43683;48.650;9.290;2023-06-24T03:12:01;12.57;;;7.20;;
57856;SDS011;43683;48.650;9.290;2023-06-24T03:14:27;10.82;;;6.30;;
57856;SDS011;43683;48.650;9.290;2023-06-24T03:16:53;10.65;;;6.72;;
57856;SDS011;43683;48.650;9.290;2023-06-24T03:19:19;12.15;;;7.15;;
57856;SDS011;43683;48.650;9.290;2023-06-24T03:21:44;9.15;;;6.30;;
57856;SDS011;43683;48.650;9.290;2023-06-24T03:24:10;12.80;;;6.63;;
57856;SDS011;43683;48.650;9.290;2023-06-24T03:26:36;10.65;;;6.90;;
57856;SDS011;43683;48.650;9.290;2023-06-24T03:29:03;12.25;;;6.97;;
57856;SDS011;43683;48.650;9.290;2023-06-24T03:31:29;12.73;;;6.68;;
57856;SDS011;43683;48.650;9.290;2023-06-24T03:33:54;17.10;;;7.38;;
57856;SDS011;43683;48.650;9.290;2023-06-24T03:36:20;11.82;;;6.82;;
57856;SDS011;43683;48.650;9.290;2023-06-24T03:38:46;11.98;;;6.78;;
57856;SDS011;43683;48.650;9.290;2023-06-24T03:41:12;13.77;;;6.82;;
57856;SDS011;43683;48.650;9.290;2023-06-24T03:43:37;12.63;;;6.43;;
57856;SDS011;43683;48.650;9.290;2023-06-24T03:46:04;13.38;;;6.38;;
57856;SDS011;43683;48.650;9.290;2023-06-24T03:48:29;11.73;;;6.43;;
57856;SDS011;43683;48.650;9.290;2023-06-24T03:50:55;9.43;;;5.53;;
57856;SDS011;43683;48.650;9.290;2023-06-24T03:53:20;11.88;;;6.82;;
57856;SDS011;43683;48.650;9.290;2023-06-24T03:55:46;12.07;;;6.22;;
57856;SDS011;43683;48.650;9.290;2023-06-24T03:58:11;11.30;;;6.32;;
57856;SDS011;43683;48.650;9.290;2023-06-24T04:00:38;8.85;;;5.07;;
57856;SDS011;43683;48.650;9.290;2023-06-24T04:03:05;9.00;;;5.20;;
57856;SDS011;43683;48.650;9.290;2023-06-24T04:05:32;11.30;;;6.17;;
57856;SDS011;43683;48.650;9.290;2023-06-24T04:07:58;9.55;;;5.80;;
57856;SDS011;43683;48.650;9.290;2023-06-24T04:10:24;10.90;;;6.32;;
57856;SDS011;43683;48.650;9.290;2023-06-24T04:12:49;10.85;;;5.88;;
57856;SDS011;43683;48.650;9.290;2023-06-24T04:15:15;11.77;;;5.72;;
57856;SDS011;43683;48.650;9.290;2023-06-24T04:17:40;8.23;;;5.32;;
57856;SDS011;43683;48.650;9.290;2023-06-24T04:20:06;8.82;;;5.15;;
57856;SDS011;43683;48.650;9.290;2023-06-24T04:22:38;10.68;;;5.55;;
57856;SDS011;43683;48.650;9.290;2023-06-24T04:25:05;10.13;;;5.05;;
57856;SDS011;43683;48.650;9.290;2023-06-24T04:27:31;10.20;;;5.50;;
57856;SDS011;43683;48.650;9.290;2023-06-24T04:29:58;11.43;;;5.43;;
57856;SDS011;43683;48.650;9.290;2023-06-24T04:32:24;8.88;;;5.32;;
57856;SDS011;43683;48.650;9.290;2023-06-24T04:34:50;8.88;;;5.07;;
57856;SDS011;43683;48.650;9.290;2023-06-24T04:37:15;8.85;;;5.30;;
57856;SDS011;43683;48.650;9.290;2023-06-24T04:39:41;9.07;;;5.30;;
57856;SDS011;43683;48.650;9.290;2023-06-24T04:42:08;9.82;;;5.60;;
57856;SDS011;43683;48.650;9.290;2023-06-24T04:44:34;10.73;;;5.13;;
57856;SDS011;43683;48.650;9.290;2023-06-24T04:47:00;9.65;;;5.22;;
57856;SDS011;43683;48.650;9.290;2023-06-24T04:49:25;10.25;;;5.50;;
57856;SDS011;43683;48.650;9.290;2023-06-24T04:51:51;10.15;;;5.55;;
57856;SDS011;43683;48.650;9.290;2023-06-24T04:54:16;10.23;;;5.78;;
57856;SDS011;43683;48.650;9.290;2023-06-24T04:56:42;9.57;;;5.38;;
57856;SDS011;43683;48.650;9.290;2023-06-24T04:59:09;15.98;;;6.22;;
57856;SDS011;43683;48.650;9.290;2023-06-24T05:01:34;10.48;;;6.18;;
57856;SDS011;43683;48.650;9.290;2023-06-24T05:04:00;11.35;;;6.13;;
57856;SDS011;43683;48.650;9.290;2023-06-24T05:06:25;8.30;;;5.18;;
57856;SDS011;43683;48.650;9.290;2023-06-24T05:08:51;10.15;;;5.75;;
57856;SDS011;43683;48.650;9.290;2023-06-24T05:11:17;10.57;;;5.68;;
57856;SDS011;43683;48.650;9.290;2023-06-24T05:13:42;9.38;;;5.78;;
57856;SDS011;43683;48.650;9.290;2023-06-24T05:16:08;10.02;;;5.35;;
57856;SDS011;43683;48.650;9.290;2023-06-24T05:18:33;12.25;;;5.93;;
57856;SDS011;43683;48.650;9.290;2023-06-24T05:20:59;11.73;;;6.35;;
57856;SDS011;43683;48.650;9.290;2023-06-24T05:23:24;8.93;;;5.10;;
57856;SDS011;43683;48.650;9.290;2023-06-24T05:25:50;9.00;;;5.05;;
57856;SDS011;43683;48.650;9.290;2023-06-24T05:28:15;9.50;;;5.32;;
57856;SDS011;43683;48.650;9.290;2023-06-24T05:30:41;10.43;;;5.50;;
57856;SDS011;43683;48.650;9.290;2023-06-24T05:33:07;10.50;;;5.53;;
57856;SDS011;43683;48.650;9.290;2023-06-24T05:35:33;10.68;;;5.50;;
57856;SDS011;43683;48.650;9.290;2023-06-24T05:37:58;8.80;;;5.38;;
57856;SDS011;43683;48.650;9.290;2023-06-24T05:40:24;10.77;;;5.72;;
57856;SDS011;43683;48.650;9.290;2023-06-24T05:42:49;8.25;;;4.90;;
57856;SDS011;43683;48.650;9.290;2023-06-24T05:45:15;9.27;;;5.03;;
57856;SDS011;43683;48.650;9.290;2023-06-24T05:47:41;8.30;;;5.05;;
57856;SDS011;43683;48.650;9.290;2023-06-24T05:50:06;7.35;;;4.55;;
57856;SDS011;43683;48.650;9.290;2023-06-24T05:52:32;9.05;;;5.20;;
57856;SDS011;43683;48.650;9.290;2023-06-24T05:54:58;7.10;;;4.15;;
57856;SDS011;43683;48.650;9.290;2023-06-24T05:57:23;8.15;;;4.63;;
57856;SDS011;43683;48.650;9.290;2023-06-24T05:59:48;8.23;;;4.60;;
57856;SDS011;43683;48.650;9.290;2023-06-24T06:02:14;6.88;;;4.57;;
57856;SDS011;43683;48.650;9.290;2023-06-24T06:04:39;8.63;;;4.65;;
57856;SDS011;43683;48.650;9.290;2023-06-24T06:07:05;6.18;;;3.83;;
57856;SDS011;43683;48.650;9.290;2023-06-24T06:09:31;8.38;;;4.50;;
57856;SDS011;43683;48.650;9.290;2023-06-24T06:11:56;7.10;;;4.15;;
57856;SDS011;43683;48.650;9.290;2023-06-24T06:14:22;7.03;;;3.75;;
57856;SDS011;43683;48.650;9.290;2023-06-24T06:16:47;7.25;;;4.13;;
57856;SDS011;43683;48.650;9.290;2023-06-24T06:19:13;7.65;;;3.95;;
57856;SDS011;43683;48.650;9.290;2023-06-24T06:21:38;6.75;;;4.22;;
57856;SDS011;43683;48.650;9.290;2023-06-24T06:24:04;8.00;;;3.78;;
57856;SDS011;43683;48.650;9.290;2023-06-24T06:26:30;7.63;;;4.13;;
57856;SDS011;43683;48.650;9.290;2023-06-24T06:28:55;8.80;;;4.18;;
57856;SDS011;43683;48.650;9.290;2023-06-24T06:31:21;6.43;;;3.83;;
57856;SDS011;43683;48.650;9.290;2023-06-24T06:33:47;6.72;;;3.83;;
57856;SDS011;43683;48.650;9.290;2023-06-24T06:36:14;6.17;;;3.27;;
57856;SDS011;43683;48.650;9.290;2023-06-24T06:38:40;6.97;;;3.70;;
57856;SDS011;43683;48.650;9.290;2023-06-24T06:41:06;6.47;;;3.20;;
57856;SDS011;43683;48.650;9.290;2023-06-24T06:43:32;6.45;;;3.67;;
57856;SDS011;43683;48.650;9.290;2023-06-24T06:45:58;6.95;;;3.88;;
57856;SDS011;43683;48.650;9.290;2023-06-24T06:48:23;5.85;;;3.28;;
57856;SDS011;43683;48.650;9.290;2023-06-24T06:50:49;6.80;;;3.60;;
57856;SDS011;43683;48.650;9.290;2023-06-24T06:53:15;5.65;;;3.33;;
57856;SDS011;43683;48.650;9.290;2023-06-24T06:55:40;5.05;;;3.25;;
57856;SDS011;43683;48.650;9.290;2023-06-24T07:00:33;5.35;;;3.00;;
57856;SDS011;43683;48.650;9.290;2023-06-24T07:02:58;5.70;;;3.55;;
57856;SDS011;43683;48.650;9.290;2023-06-24T07:05:24;5.40;;;3.08;;
57856;SDS011;43683;48.650;9.290;2023-06-24T07:07:49;3.97;;;2.90;;
57856;SDS011;43683;48.650;9.290;2023-06-24T07:10:15;6.70;;;3.30;;
57856;SDS011;43683;48.650;9.290;2023-06-24T07:12:42;5.50;;;3.22;;
57856;SDS011;43683;48.650;9.290;2023-06-24T07:15:08;6.55;;;3.75;;
57856;SDS011;43683;48.650;9.290;2023-06-24T07:17:34;5.93;;;3.05;;
57856;SDS011;43683;48.650;9.290;2023-06-24T07:19:59;5.35;;;2.78;;
57856;SDS011;43683;48.650;9.290;2023-06-24T07:22:25;5.50;;;2.78;;
57856;SDS011;43683;48.650;9.290;2023-06-24T07:24:50;3.78;;;2.30;;
57856;SDS011;43683;48.650;9.290;2023-06-24T07:27:16;4.15;;;2.50;;
57856;SDS011;43683;48.650;9.290;2023-06-24T07:29:41;10.25;;;3.42;;
57856;SDS011;43683;48.650;9.290;2023-06-24T07:32:07;6.07;;;2.70;;
57856;SDS011;43683;48.650;9.290;2023-06-24T07:34:33;5.45;;;2.75;;
57856;SDS011;43683;48.650;9.290;2023-06-24T07:36:58;5.15;;;2.38;;
57856;SDS011;43683;48.650;9.290;2023-06-24T07:39:24;4.45;;;2.50;;
57856;SDS011;43683;48.650;9.290;2023-06-24T07:41:49;4.13;;;2.17;;
57856;SDS011;43683;48.650;9.290;2023-06-24T07:44:15;4.43;;;2.42;;
57856;SDS011;43683;48.650;9.290;2023-06-24T07:46:40;6.30;;;2.50;;
57856;SDS011;43683;48.650;9.290;2023-06-24T07:49:06;6.03;;;2.72;;
57856;SDS011;43683;48.650;9.290;2023-06-24T07:51:31;4.55;;;2.40;;
57856;SDS011;43683;48.650;9.290;2023-06-24T07:53:59;4.47;;;2.30;;
57856;SDS011;43683;48.650;9.290;2023-06-24T07:56:25;5.22;;;2.30;;
57856;SDS011;43683;48.650;9.290;2023-06-24T07:58:51;3.72;;;2.67;;
57856;SDS011;43683;48.650;9.290;2023-06-24T08:01:16;5.00;;;2.47;;
57856;SDS011;43683;48.650;9.290;2023-06-24T08:03:42;4.13;;;2.20;;
57856;SDS011;43683;48.650;9.290;2023-06-24T08:06:07;4.45;;;2.30;;
57856;SDS011;43683;48.650;9.290;2023-06-24T08:08:33;3.67;;;2.17;;
57856;SDS011;43683;48.650;9.290;2023-06-24T08:10:58;4.70;;;2.38;;
57856;SDS011;43683;48.650;9.290;2023-06-24T08:13:24;4.47;;;2.70;;
57856;SDS011;43683;48.650;9.290;2023-06-24T08:15:49;5.30;;;2.50;;
57856;SDS011;43683;48.650;9.290;2023-06-24T08:18:15;3.70;;;2.00;;
57856;SDS011;43683;48.650;9.290;2023-06-24T08:20:40;4.82;;;2.45;;
57856;SDS011;43683;48.650;9.290;2023-06-24T08:23:06;5.35;;;2.60;;
57856;SDS011;43683;48.650;9.290;2023-06-24T08:25:32;7.72;;;2.50;;
57856;SDS011;43683;48.650;9.290;2023-06-24T08:27:57;4.40;;;2.47;;
57856;SDS011;43683;48.650;9.290;2023-06-24T08:30:23;3.40;;;2.35;;
57856;SDS011;43683;48.650;9.290;2023-06-24T08:32:49;3.70;;;2.28;;
57856;SDS011;43683;48.650;9.290;2023-06-24T08:35:15;3.72;;;2.40;;
57856;SDS011;43683;48.650;9.290;2023-06-24T08:37:40;4.32;;;2.30;;
57856;SDS011;43683;48.650;9.290;2023-06-24T08:40:06;4.17;;;2.33;;
57856;SDS011;43683;48.650;9.290;2023-06-24T08:42:32;6.10;;;2.38;;
57856;SDS011;43683;48.650;9.290;2023-06-24T08:44:58;4.47;;;2.53;;
57856;SDS011;43683;48.650;9.290;2023-06-24T08:47:24;6.70;;;3.17;;
57856;SDS011;43683;48.650;9.290;2023-06-24T08:49:53;5.68;;;2.50;;
57856;SDS011;43683;48.650;9.290;2023-06-24T08:52:26;4.60;;;2.13;;
57856;SDS011;43683;48.650;9.290;2023-06-24T08:54:56;5.55;;;2.97;;
57856;SDS011;43683;48.650;9.290;2023-06-24T08:57:24;4.38;;;2.70;;
57856;SDS011;43683;48.650;9.290;2023-06-24T08:59:49;4.27;;;2.50;;
57856;SDS011;43683;48.650;9.290;2023-06-24T09:02:15;5.03;;;2.30;;
57856;SDS011;43683;48.650;9.290;2023-06-24T09:04:41;3.40;;;2.00;;
57856;SDS011;43683;48.650;9.290;2023-06-24T09:07:06;4.83;;;2.40;;
57856;SDS011;43683;48.650;9.290;2023-06-24T09:09:32;4.17;;;2.23;;
57856;SDS011;43683;48.650;9.290;2023-06-24T09:11:58;4.70;;;2.43;;
57856;SDS011;43683;48.650;9.290;2023-06-24T09:14:25;5.10;;;2.28;;
57856;SDS011;43683;48.650;9.290;2023-06-24T09:16:54;3.33;;;1.95;;
57856;SDS011;43683;48.650;9.290;2023-06-24T09:19:25;5.38;;;2.22;;
57856;SDS011;43683;48.650;9.290;2023-06-24T09:21:55;3.70;;;2.15;;
57856;SDS011;43683;48.650;9.290;2023-06-24T09:24:35;4.80;;;2.20;;
57856;SDS011;43683;48.650;9.290;2023-06-24T09:27:02;3.53;;;2.10;;
57856;SDS011;43683;48.650;9.290;2023-06-24T09:29:31;4.05;;;2.10;;
57856;SDS011;43683;48.650;9.290;2023-06-24T09:31:57;3.33;;;2.00;;
57856;SDS011;43683;48.650;9.290;2023-06-24T09:34:25;3.47;;;2.10;;
57856;SDS011;43683;48.650;9.290;2023-06-24T09:36:52;5.05;;;2.40;;
57856;SDS011;43683;48.650;9.290;2023-06-24T09:39:19;3.42;;;2.15;;
57856;SDS011;43683;48.650;9.290;2023-06-24T09:41:54;4.70;;;2.30;;
57856;SDS011;43683;48.650;9.290;2023-06-24T09:44:20;3.40;;;2.22;;
57856;SDS011;43683;48.650;9.290;2023-06-24T09:46:46;4.73;;;2.67;;
57856;SDS011;43683;48.650;9.290;2023-06-24T09:49:12;3.88;;;2.00;;
57856;SDS011;43683;48.650;9.290;2023-06-24T09:51:38;4.07;;;2.30;;
57856;SDS011;43683;48.650;9.290;2023-06-24T09:54:05;4.68;;;2.30;;
57856;SDS011;43683;48.650;9.290;2023-06-24T09:56:32;4.27;;;2.10;;
57856;SDS011;43683;48.650;9.290;2023-06-24T09:59:01;2.58;;;1.73;;
57856;SDS011;43683;48.650;9.290;2023-06-24T10:01:41;4.10;;;2.28;;
57856;SDS011;43683;48.650;9.290;2023-06-24T10:04:09;3.55;;;2.00;;
57856;SDS011;43683;48.650;9.290;2023-06-24T10:06:38;3.42;;;2.25;;
57856;SDS011;43683;48.650;9.290;2023-06-24T10:09:04;4.37;;;2.00;;
57856;SDS011;43683;48.650;9.290;2023-06-24T10:11:29;4.10;;;2.50;;
57856;SDS011;43683;48.650;9.290;2023-06-24T10:13:58;3.70;;;2.05;;
57856;SDS011;43683;48.650;9.290;2023-06-24T10:16:24;3.67;;;2.15;;
57856;SDS011;43683;48.650;9.290;2023-06-24T10:18:50;3.47;;;2.10;;
57856;SDS011;43683;48.650;9.290;2023-06-24T10:21:15;5.73;;;2.37;;
57856;SDS011;43683;48.650;9.290;2023-06-24T10:39:34;4.85;;;2.10;;
57856;SDS011;43683;48.650;9.290;2023-06-24T10:42:24;3.05;;;1.95;;
57856;SDS011;43683;48.650;9.290;2023-06-24T10:45:02;4.05;;;1.88;;
57856;SDS011;43683;48.650;9.290;2023-06-24T10:50:13;2.50;;;1.83;;
57856;SDS011;43683;48.650;9.290;2023-06-24T10:52:40;3.67;;;2.08;;
57856;SDS011;43683;48.650;9.290;2023-06-24T10:55:07;3.13;;;1.90;;
57856;SDS011;43683;48.650;9.290;2023-06-24T10:57:33;3.15;;;1.90;;
57856;SDS011;43683;48.650;9.290;2023-06-24T11:00:00;2.97;;;1.73;;
57856;SDS011;43683;48.650;9.290;2023-06-24T11:02:27;2.92;;;1.75;;
57856;SDS011;43683;48.650;9.290;2023-06-24T11:04:56;4.13;;;2.23;;
57856;SDS011;43683;48.650;9.290;2023-06-24T11:07:27;5.32;;;2.10;;
57856;SDS011;43683;48.650;9.290;2023-06-24T11:09:56;4.57;;;2.13;;
57856;SDS011;43683;48.650;9.290;2023-06-24T11:12:27;2.65;;;1.55;;
57856;SDS011;43683;48.650;9.290;2023-06-24T11:14:58;3.97;;;1.80;;
57856;SDS011;43683;48.650;9.290;2023-06-24T11:17:26;3.63;;;1.98;;
57856;SDS011;43683;48.650;9.290;2023-06-24T11:19:53;4.07;;;1.90;;
57856;SDS011;43683;48.650;9.290;2023-06-24T11:24:45;2.67;;;1.67;;
57856;SDS011;43683;48.650;9.290;2023-06-24T11:27:10;3.00;;;1.73;;
57856;SDS011;43683;48.650;9.290;2023-06-24T11:29:36;4.43;;;1.70;;
57856;SDS011;43683;48.650;9.290;2023-06-24T11:32:02;5.33;;;1.80;;
57856;SDS011;43683;48.650;9.290;2023-06-24T11:36:54;2.75;;;1.60;;
57856;SDS011;43683;48.650;9.290;2023-06-24T11:39:23;2.60;;;1.70;;
57856;SDS011;43683;48.650;9.290;2023-06-24T11:41:53;3.80;;;2.10;;
57856;SDS011;43683;48.650;9.290;2023-06-24T11:44:23;4.00;;;1.80;;
57856;SDS011;43683;48.650;9.290;2023-06-24T11:46:49;2.17;;;1.60;;
57856;SDS011;43683;48.650;9.290;2023-06-24T11:49:15;2.40;;;1.17;;
57856;SDS011;43683;48.650;9.290;2023-06-24T11:51:49;3.45;;;1.60;;
57856;SDS011;43683;48.650;9.290;2023-06-24T11:54:16;1.88;;;1.48;;
57856;SDS011;43683;48.650;9.290;2023-06-24T11:56:43;2.47;;;1.60;;
57856;SDS011;43683;48.650;9.290;2023-06-24T12:01:43;4.80;;;1.88;;
57856;SDS011;43683;48.650;9.290;2023-06-24T12:04:13;3.03;;;1.75;;
57856;SDS011;43683;48.650;9.290;2023-06-24T12:06:39;3.30;;;1.73;;
57856;SDS011;43683;48.650;9.290;2023-06-24T12:09:06;1.33;;;1.13;;
57856;SDS011;43683;48.650;9.290;2023-06-24T12:11:32;3.08;;;1.92;;
57856;SDS011;43683;48.650;9.290;2023-06-24T12:13:58;3.07;;;1.83;;
57856;SDS011;43683;48.650;9.290;2023-06-24T12:16:23;6.63;;;1.93;;
57856;SDS011;43683;48.650;9.290;2023-06-24T12:18:51;3.10;;;1.63;;
57856;SDS011;43683;48.650;9.290;2023-06-24T12:21:16;3.60;;;1.73;;
57856;SDS011;43683;48.650;9.290;2023-06-24T12:23:42;3.10;;;1.70;;
57856;SDS011;43683;48.650;9.290;2023-06-24T12:26:08;3.67;;;1.60;;
57856;SDS011;43683;48.650;9.290;2023-06-24T12:28:33;1.83;;;1.40;;
57856;SDS011;43683;48.650;9.290;2023-06-24T12:30:59;3.57;;;1.90;;
57856;SDS011;43683;48.650;9.290;2023-06-24T12:33:24;3.17;;;1.50;;
57856;SDS011;43683;48.650;9.290;2023-06-24T12:35:50;3.40;;;1.80;;
57856;SDS011;43683;48.650;9.290;2023-06-24T12:38:15;3.43;;;1.67;;
57856;SDS011;43683;48.650;9.290;2023-06-24T12:40:41;3.23;;;1.67;;
57856;SDS011;43683;48.650;9.290;2023-06-24T12:43:07;2.75;;;1.70;;
57856;SDS011;43683;48.650;9.290;2023-06-24T12:45:32;3.30;;;1.67;;
57856;SDS011;43683;48.650;9.290;2023-06-24T12:47:58;2.40;;;1.73;;
57856;SDS011;43683;48.650;9.290;2023-06-24T12:50:24;3.55;;;1.73;;
57856;SDS011;43683;48.650;9.290;2023-06-24T12:52:50;3.23;;;1.73;;
57856;SDS011;43683;48.650;9.290;2023-06-24T12:55:15;2.33;;;1.53;;
57856;SDS011;43683;48.650;9.290;2023-06-24T12:57:41;2.80;;;1.70;;
57856;SDS011;43683;48.650;9.290;2023-06-24T13:00:07;3.13;;;1.77;;
57856;SDS011;43683;48.650;9.290;2023-06-24T13:02:33;2.65;;;1.73;;
57856;SDS011;43683;48.650;9.290;2023-06-24T13:07:25;2.35;;;1.55;;
57856;SDS011;43683;48.650;9.290;2023-06-24T13:09:50;3.60;;;1.83;;
57856;SDS011;43683;48.650;9.290;2023-06-24T13:12:16;4.07;;;1.70;;
57856;SDS011;43683;48.650;9.290;2023-06-24T13:14:41;5.20;;;1.93;;
57856;SDS011;43683;48.650;9.290;2023-06-24T13:17:07;2.73;;;1.60;;
57856;SDS011;43683;48.650;9.290;2023-06-24T13:19:32;3.50;;;2.00;;
57856;SDS011;43683;48.650;9.290;2023-06-24T13:21:58;3.53;;;1.70;;
57856;SDS011;43683;48.650;9.290;2023-06-24T13:24:24;2.90;;;1.50;;
57856;SDS011;43683;48.650;9.290;2023-06-24T13:26:53;3.08;;;1.75;;
57856;SDS011;43683;48.650;9.290;2023-06-24T13:29:18;2.80;;;1.70;;
57856;SDS011;43683;48.650;9.290;2023-06-24T13:31:47;3.67;;;1.88;;
57856;SDS011;43683;48.650;9.290;2023-06-24T13:34:12;3.30;;;2.00;;
57856;SDS011;43683;48.650;9.290;2023-06-24T13:36:38;5.23;;;1.80;;
57856;SDS011;43683;48.650;9.290;2023-06-24T13:39:05;3.60;;;2.10;;
57856;SDS011;43683;48.650;9.290;2023-06-24T13:41:31;3.13;;;1.70;;
57856;SDS011;43683;48.650;9.290;2023-06-24T13:44:01;2.72;;;1.75;;
57856;SDS011;43683;48.650;9.290;2023-06-24T13:46:27;2.88;;;1.75;;
57856;SDS011;43683;48.650;9.290;2023-06-24T13:48:54;2.95;;;1.90;;
57856;SDS011;43683;48.650;9.290;2023-06-24T13:51:20;2.83;;;1.60;;
57856;SDS011;43683;48.650;9.290;2023-06-24T13:53:46;2.57;;;1.67;;
57856;SDS011;43683;48.650;9.290;2023-06-24T13:56:14;2.75;;;1.85;;
57856;SDS011;43683;48.650;9.290;2023-06-24T13:58:39;2.73;;;1.90;;
57856;SDS011;43683;48.650;9.290;2023-06-24T14:01:05;2.77;;;1.80;;
57856;SDS011;43683;48.650;9.290;2023-06-24T14:03:30;4.00;;;1.87;;
57856;SDS011;43683;48.650;9.290;2023-06-24T14:05:56;3.80;;;1.87;;
57856;SDS011;43683;48.650;9.290;2023-06-24T14:08:22;2.67;;;1.70;;
57856;SDS011;43683;48.650;9.290;2023-06-24T14:10:48;3.17;;;1.70;;
57856;SDS011;43683;48.650;9.290;2023-06-24T14:13:14;3.22;;;1.90;;
57856;SDS011;43683;48.650;9.290;2023-06-24T14:15:40;4.93;;;2.00;;
57856;SDS011;43683;48.650;9.290;2023-06-24T14:18:06;5.45;;;2.00;;
57856;SDS011;43683;48.650;9.290;2023-06-24T14:20:31;3.87;;;2.00;;
57856;SDS011;43683;48.650;9.290;2023-06-24T14:22:57;3.57;;;2.10;;
57856;SDS011;43683;48.650;9.290;2023-06-24T14:25:22;2.97;;;2.10;;
57856;SDS011;43683;48.650;9.290;2023-06-24T14:27:49;4.43;;;2.00;;
57856;SDS011;43683;48.650;9.290;2023-06-24T14:30:15;4.00;;;2.00;;
57856;SDS011;43683;48.650;9.290;2023-06-24T14:32:40;3.07;;;2.10;;
57856;SDS011;43683;48.650;9.290;2023-06-24T14:35:06;3.63;;;2.10;;
57856;SDS011;43683;48.650;9.290;2023-06-24T14:37:33;3.15;;;1.98;;
57856;SDS011;43683;48.650;9.290;2023-06-24T14:39:58;2.83;;;2.00;;
57856;SDS011;43683;48.650;9.290;2023-06-24T14:42:24;2.50;;;1.93;;
57856;SDS011;43683;48.650;9.290;2023-06-24T14:44:49;4.17;;;2.03;;
57856;SDS011;43683;48.650;9.290;2023-06-24T14:47:15;2.67;;;2.03;;
57856;SDS011;43683;48.650;9.290;2023-06-24T14:49:40;3.23;;;1.87;;
57856;SDS011;43683;48.650;9.290;2023-06-24T14:52:06;3.00;;;1.87;;
57856;SDS011;43683;48.650;9.290;2023-06-24T14:54:32;3.93;;;2.07;;
57856;SDS011;43683;48.650;9.290;2023-06-24T14:56:57;2.73;;;1.80;;
57856;SDS011;43683;48.650;9.290;2023-06-24T14:59:23;3.53;;;1.70;;
57856;SDS011;43683;48.650;9.290;2023-06-24T15:01:48;3.03;;;1.87;;
57856;SDS011;43683;48.650;9.290;2023-06-24T15:04:14;3.10;;;1.97;;
57856;SDS011;43683;48.650;9.290;2023-06-24T15:06:39;3.80;;;2.00;;
57856;SDS011;43683;48.650;9.290;2023-06-24T15:09:05;2.27;;;1.73;;
57856;SDS011;43683;48.650;9.290;2023-06-24T15:11:30;3.63;;;2.03;;
57856;SDS011;43683;48.650;9.290;2023-06-24T15:13:56;3.83;;;1.90;;
57856;SDS011;43683;48.650;9.290;2023-06-24T15:16:21;2.87;;;1.90;;
57856;SDS011;43683;48.650;9.290;2023-06-24T15:18:47;2.80;;;1.90;;
57856;SDS011;43683;48.650;9.290;2023-06-24T15:21:16;2.17;;;1.50;;
57856;SDS011;43683;48.650;9.290;2023-06-24T15:23:41;4.75;;;2.00;;
57856;SDS011;43683;48.650;9.290;2023-06-24T15:26:07;2.63;;;1.95;;
57856;SDS011;43683;48.650;9.290;2023-06-24T15:28:33;2.60;;;1.80;;
57856;SDS011;43683;48.650;9.290;2023-06-24T15:31:02;2.50;;;1.90;;